OCE weather

Ocean City Municipal Airport
Ocean City, Maryland, United States

Public forecast

Using degrees Fahrenheit for public forecast. Weather courtesy of forecast.io.

METAR (pilot weather report)

Retrieved 2019/02/19 22:53 UTC (52 minutes ago):

KOXB 192253Z AUTO 33005KT 10SM CLR 03/M10 A3059 RMK AO2 SLP358 T00281100

TAF (pilot weather forecast)

Closest forecast is Salisbury Ocean City Wicomico Regional Airport, 18.3 nm (33.9 km) W. Retrieved 2019/02/19 18:42 UTC (5 hours ago):

TAF KSBY 191739Z 1918/2018 36006KT P6SM SCT250 FM200000 00000KT P6SM BKN250 FM200700 00000KT P6SM OVC080 FM201000 05003KT P6SM -SN SCT012 OVC035 FM201500 08007KT 2SM -SNPL OVC012